Flight Track Log - Related Links

Times and Time Zones

All times are in EDT time to prevent confusion due to time zone crossing. See the N451N flight status page for this flight to view local times or setup timezone preferences in your user account.

Time Position Orientation Groundspeed Altitude Reporting Facility
EDT Latitude Longitude Course Direction KTS MPH feet Rate Location/Type
Wed 07:18:07 AM 41.9208 -72.6717 206° Southwest 167 192 1,000  Level Boston Center
Wed 07:18:37 AM 41.9000 -72.6856 206° Southwest 172 198 2,300 2,047 Climbing Boston Center
Wed 07:19:32 AM 41.8997 -72.7386 270° West 177 204 3,900 2,348 Climbing Boston Center
Wed 07:20:32 AM 41.9017 -72.8250 272° West 204 235 6,800 3,150 Climbing Boston Center
Wed 07:21:32 AM 41.9056 -72.9200 273° West 236 272 10,200 2,750 Climbing Boston Center
Wed 07:22:32 AM 41.9069 -73.0425 271° West 275 316 12,300 2,050 Climbing Boston Center
Wed 07:23:32 AM 41.9083 -73.1569 271° West 327 376 14,300 2,050 Climbing Boston Center
Wed 07:24:32 AM 41.9094 -73.3022 271° West 358 412 16,400 1,850 Climbing Boston Center
Wed 07:25:32 AM 41.8606 -73.4100 239° Southwest 363 418 18,000 1,700 Climbing Boston Center
Wed 07:26:32 AM 41.8031 -73.5375 239° Southwest 379 436 19,800 1,636 Climbing Boston Center
Wed 07:27:44 AM 41.7131 -73.6025 208° Southwest 386 444 21,600 1,818 Climbing Boston Center
Wed 07:28:44 AM 41.5756 -73.5972 178° South 366 421 23,800 2,050 Climbing Boston Center
Wed 07:29:44 AM 41.4567 -73.5894 177° South 391 450 25,700 2,220 Climbing Boston Center
Wed 07:32:04 AM 41.2128 -73.7003 199° South 399 459 31,200 2,507 Climbing New York Center
Wed 07:33:05 AM 41.1475 -73.8131 232° Southwest 388 447 34,100 2,281 Climbing New York Center
Wed 07:34:05 AM 41.0842 -73.9175 231° Southwest 381 438 35,800 1,475 Climbing New York Center
Wed 07:35:03 AM 41.0231 -74.0219 232° Southwest 376 433 37,000 1,220 Climbing New York Center
Wed 07:36:03 AM 40.9553 -74.1342 231° Southwest 381 438 38,200 1,190 Climbing New York Center
Wed 07:37:04 AM 40.8814 -74.2483 229° Southwest 381 438 39,400 1,131 Climbing New York Center
Wed 07:38:05 AM 40.8175 -74.3575 232° Southwest 381 438 40,500 807 Climbing New York Center
Wed 07:39:03 AM 40.7561 -74.4583 231° Southwest 393 452 41,000 508 Climbing New York Center
Wed 07:40:03 AM 40.6900 -74.5697 232° Southwest 393 452 41,500 496 Climbing New York Center
Wed 07:41:04 AM 40.6219 -74.6781 230° Southwest 393 452 42,000 500 Climbing New York Center
Wed 07:42:03 AM 40.5492 -74.7942 231° Southwest 393 452 42,500 504 Climbing New York Center
Wed 07:43:03 AM 40.4747 -74.8989 227° Southwest 398 458 43,000 250 Climbing New York Center
Wed 07:44:03 AM 40.3981 -75.0061 227° Southwest 406 467 43,000  Level New York Center
Wed 07:45:05 AM 40.3211 -75.1183 228° Southwest 411 473 43,000  Level New York Center
Wed 07:46:03 AM 40.2419 -75.2278 227° Southwest 411 473 43,000  Level New York Center
Wed 07:47:04 AM 40.1625 -75.3394 227° Southwest 416 479 43,000  Level New York Center
Wed 07:48:04 AM 40.0833 -75.4508 227° Southwest 416 479 43,000  Level New York Center
Wed 07:49:03 AM 40.0036 -75.5619 227° Southwest 422 486 43,000  Level New York Center
Wed 07:50:04 AM 39.9222 -75.6700 226° Southwest 422 486 43,000  Level New York Center
Wed 07:51:04 AM 39.8506 -75.7867 231° Southwest 422 486 43,000  Level New York Center
Wed 07:52:05 AM 39.7789 -75.9006 231° Southwest 417 480 43,000  Level New York Center
Wed 07:53:03 AM 39.7069 -76.0167 231° Southwest 417 480 43,000  Level New York Center
Wed 07:54:03 AM 39.6331 -76.1300 230° Southwest 417 480 43,000  Level New York Center
Wed 07:55:27 AM 39.5303 -76.2883 230° Southwest 430 495 43,000  Level Washington Center
Wed 07:56:28 AM 39.4567 -76.4033 230° Southwest 430 495 43,000  Level Washington Center
Wed 07:57:29 AM 39.3744 -76.5311 230° Southwest 430 495 43,000  Level Washington Center
Wed 07:58:27 AM 39.3069 -76.6322 229° Southwest 424 488 43,000  Level Washington Center
Wed 07:59:28 AM 39.2350 -76.7439 230° Southwest 424 488 43,000  Level Washington Center
Wed 08:00:29 AM 39.1611 -76.8606 231° Southwest 429 494 43,000  Level Washington Center
Wed 08:01:27 AM 39.0828 -76.9686 227° Southwest 429 494 43,000  Level Washington Center
Wed 08:02:27 AM 39.0000 -77.0739 225° Southwest 422 486 43,000  Level Washington Center
Wed 08:03:29 AM 38.9344 -77.1553 224° Southwest 422 486 43,000  Level Washington Center
Wed 08:04:29 AM 38.8369 -77.2814 225° Southwest 422 486 43,000  Level Washington Center
Wed 08:05:29 AM 38.7542 -77.3806 223° Southwest 416 479 43,000  Level Washington Center
Wed 08:06:27 AM 38.6733 -77.4850 225° Southwest 416 479 43,000  Level Washington Center
Wed 08:07:27 AM 38.5839 -77.5994 225° Southwest 416 479 43,000  Level Washington Center
Wed 08:08:27 AM 38.5008 -77.7033 224° Southwest 416 479 43,000  Level Washington Center
Wed 08:09:28 AM 38.4219 -77.8044 225° Southwest 416 479 43,000  Level Washington Center
Wed 08:10:29 AM 38.3408 -77.9053 224° Southwest 416 479 43,000  Level Washington Center
Wed 08:11:27 AM 38.2594 -78.0086 225° Southwest 416 479 43,000  Level Washington Center
Wed 08:12:27 AM 38.1803 -78.1092 225° Southwest 416 479 43,000  Level Washington Center
Wed 08:13:28 AM 38.1139 -78.1914 224° Southwest 416 479 43,000 -787 Level Washington Center
Wed 08:14:29 AM 38.0175 -78.3092 224° Southwest 411 473 41,400 -1,563 Descending Washington Center
Wed 08:15:27 AM 37.9400 -78.4092 226° Southwest 400 460 39,900 -1,513 Descending Washington Center
Wed 08:16:28 AM 37.8647 -78.5036 225° Southwest 412 474 38,400 -1,672 Descending Washington Center
Wed 08:17:29 AM 37.7808 -78.6028 223° Southwest 412 474 36,500 -1,934 Descending Washington Center
Wed 08:18:29 AM 37.6947 -78.7097 225° Southwest 417 480 34,500 -2,051 Descending Washington Center
Wed 08:19:26 AM 37.6108 -78.8111 224° Southwest 423 487 32,500 -2,034 Descending Washington Center
Wed 08:20:27 AM 37.5225 -78.9147 223° Southwest 423 487 30,500 -2,182 Descending Washington Center
Wed 08:21:27 AM 37.4253 -79.0333 224° Southwest 434 499 28,100 -2,132 Descending Washington Center
Wed 08:22:28 AM 37.3367 -79.1367 223° Southwest 434 499 26,200 -1,835 Descending Washington Center
Wed 08:23:28 AM 37.2544 -79.2344 223° Southwest 429 494 24,400 -1,587 Descending Washington Center
Wed 08:24:29 AM 37.1778 -79.3481 230° Southwest 429 494 23,000 -712 Descending Washington Center
Wed 08:25:26 AM 37.1033 -79.4592 230° Southwest 429 494 23,000  Level Washington Center
Wed 08:26:27 AM 37.0356 -79.5597 230° Southwest 429 494 23,000  Level Washington Center
Wed 08:27:28 AM 36.9608 -79.6703 230° Southwest 429 494 23,000  Level Washington Center
Wed 08:28:29 AM 36.9014 -79.7581 230° Southwest 423 487 23,000 -793 Level Washington Center
Wed 08:31:30 AM 36.6606 -80.1053 229° Southwest 353 406 19,800 -1,145 Descending Atlanta Center
Wed 08:32:30 AM 36.6006 -80.1908 229° Southwest 345 397 18,400 -1,400 Descending Atlanta Center
Wed 08:33:30 AM 36.5347 -80.2844 229° Southwest 360 414 17,000 -1,700 Descending Atlanta Center
Wed 08:34:30 AM 36.4708 -80.3781 230° Southwest 372 428 15,000 -1,950 Descending Atlanta Center
Wed 08:35:30 AM 36.4108 -80.4683 230° Southwest 366 421 13,100 -2,100 Descending Atlanta Center
Wed 08:36:30 AM 36.3489 -80.5561 229° Southwest 332 382 10,800 -1,900 Descending Atlanta Center
Wed 08:37:30 AM 36.2989 -80.6306 230° Southwest 299 344 9,300 -1,400 Descending Atlanta Center
Wed 08:38:30 AM 36.2375 -80.6769 211° Southwest 266 306 8,000 -800 Descending Atlanta Center
Wed 08:39:30 AM 36.1667 -80.6772 180° South 254 292 7,700 -850 Descending Atlanta Center
Wed 08:40:30 AM 36.0958 -80.6828 184° South 254 292 6,300 -1,450 Descending Atlanta Center
Wed 08:41:30 AM 36.0250 -80.6908 185° South 254 292 4,800 -1,350 Descending Atlanta Center
Wed 08:42:30 AM 35.9586 -80.6961 184° South 254 292 3,600 -600 Descending Atlanta Center
Wed 08:43:30 AM 35.8919 -80.7014 184° South 248 285 3,600  Level Atlanta Center
Wed 08:44:30 AM 35.8336 -80.7089 186° South 224 258 3,600  Level Atlanta Center
Wed 08:45:30 AM 35.7797 -80.7164 186° South 207 238 3,600 -100 Level Atlanta Center
Wed 08:46:30 AM 35.7450 -80.7458 215° Southwest 201 231 3,400 -400 Descending Atlanta Center
Wed 08:47:30 AM 35.7489 -80.8097 274° West 153 176 2,800 -550 Descending Atlanta Center
Wed 08:48:30 AM 35.7544 -80.8631 277° West 159 183 2,300 -600 Descending Atlanta Center
Wed 08:49:30 AM 35.7597 -80.9089 278° West 154 177 1,600 -450 Descending Atlanta Center
Wed 08:50:30 AM 35.7653 -80.9600 278° West 148 170 1,400 -200 Descending Atlanta Center

Login

Don't have an account? Register now (free) for customized features, flight alerts, and more!